Time;durP1;ratioP1;P1;durP2;ratioP2;P2;SDS_P1;SDS_P2;PMS_P1;PMS_P2;Temp;Humidity;BMP_temperature;BMP_pressure;BME280_temperature;BME280_humidity;BME280_pressure;Samples;Min_cycle;Max_cycle;Signal;HPM_P1;HPM_P2
2022/03/10 00:02:21;;;;;;;18.40;8.73;;;2.70;76.40;;;;;;5024794;28;20034;-67
2022/03/10 00:04:46;;;;;;;17.50;8.75;;;2.70;76.00;;;;;;5024312;28;20034;-67
2022/03/10 00:07:12;;;;;;;18.98;9.38;;;2.70;76.60;;;;;;5023616;28;20559;-68
2022/03/10 00:09:38;;;;;;;18.92;8.90;;;2.60;76.70;;;;;;5020527;28;20040;-68
2022/03/10 00:12:04;;;;;;;20.15;8.75;;;2.70;77.20;;;;;;5024276;28;20033;-68
2022/03/10 00:14:30;;;;;;;17.27;8.45;;;2.70;76.40;;;;;;5023912;28;20068;-68
2022/03/10 00:16:56;;;;;;;19.73;9.57;;;2.70;76.70;;;;;;5023463;28;20700;-67
2022/03/10 00:19:22;;;;;;;20.95;9.48;;;2.70;77.40;;;;;;5024134;28;20072;-67
2022/03/10 00:21:49;;;;;;;17.70;8.85;;;2.60;77.70;;;;;;5023735;28;20033;-67
2022/03/10 00:24:15;;;;;;;19.20;9.73;;;2.50;77.90;;;;;;5022529;28;20038;-68
2022/03/10 00:26:42;;;;;;;16.33;8.70;;;2.40;78.80;;;;;;5023127;28;20029;-67
2022/03/10 00:29:08;;;;;;;20.73;10.05;;;2.40;79.40;;;;;;5031802;28;20099;-68
2022/03/10 00:31:34;;;;;;;16.10;8.55;;;2.30;79.90;;;;;;5023911;28;20033;-67
2022/03/10 00:34:00;;;;;;;17.88;7.78;;;2.20;80.00;;;;;;5022914;28;20039;-68
2022/03/10 00:36:26;;;;;;;15.95;8.43;;;2.20;80.00;;;;;;5023196;28;20072;-68
2022/03/10 00:38:52;;;;;;;14.02;8.05;;;2.10;79.90;;;;;;5023036;28;20171;-69
2022/03/10 00:41:18;;;;;;;18.92;9.15;;;2.00;80.10;;;;;;5023206;28;20033;-68
2022/03/10 00:43:44;;;;;;;23.48;10.07;;;2.00;80.80;;;;;;5023280;28;20029;-68
2022/03/10 00:46:10;;;;;;;26.25;10.70;;;2.00;81.20;;;;;;5022151;28;20029;-68
2022/03/10 00:48:37;;;;;;;27.48;11.13;;;2.00;81.70;;;;;;5023181;28;20765;-68
2022/03/10 00:51:03;;;;;;;24.50;11.95;;;2.00;81.50;;;;;;5022874;28;20033;-67
2022/03/10 00:53:29;;;;;;;25.17;11.15;;;2.00;81.20;;;;;;5023253;28;20034;-67
2022/03/10 00:55:55;;;;;;;22.15;10.65;;;2.00;80.90;;;;;;5022562;28;20579;-69
2022/03/10 00:58:21;;;;;;;23.35;10.40;;;2.10;80.80;;;;;;5022807;28;20048;-67
2022/03/10 01:00:46;;;;;;;22.02;11.65;;;2.10;80.80;;;;;;5019729;28;20055;-68
2022/03/10 01:03:12;;;;;;;22.23;10.80;;;2.10;80.70;;;;;;5022822;28;20037;-67
2022/03/10 01:05:38;;;;;;;21.30;9.60;;;2.10;80.90;;;;;;5022288;28;20525;-68
2022/03/10 01:08:04;;;;;;;16.70;9.30;;;2.10;81.10;;;;;;5023056;28;20144;-68
2022/03/10 01:10:32;;;;;;;23.10;11.25;;;2.10;81.00;;;;;;5022231;28;20120;-67
2022/03/10 01:12:57;;;;;;;20.42;10.85;;;2.20;81.10;;;;;;5022513;28;20620;-67
2022/03/10 01:15:25;;;;;;;18.67;8.73;;;2.20;80.50;;;;;;5018497;28;20130;-67
2022/03/10 01:17:51;;;;;;;21.25;9.85;;;2.10;80.60;;;;;;5021975;28;20560;-68
2022/03/10 01:20:18;;;;;;;21.90;10.40;;;2.10;81.00;;;;;;5022103;28;20029;-68
2022/03/10 01:22:45;;;;;;;21.80;10.18;;;2.00;80.90;;;;;;5021846;28;20425;-67
2022/03/10 01:25:11;;;;;;;25.23;10.73;;;2.00;80.40;;;;;;5021570;28;20524;-68
2022/03/10 01:27:38;;;;;;;24.20;10.48;;;1.90;80.40;;;;;;5022635;28;20033;-67
2022/03/10 01:30:06;;;;;;;20.35;10.52;;;1.90;81.00;;;;;;5021818;28;20034;-67
2022/03/10 01:32:32;;;;;;;22.15;10.73;;;1.80;81.30;;;;;;5022355;28;20037;-67
2022/03/10 01:34:58;;;;;;;26.52;10.48;;;1.80;81.20;;;;;;5021584;28;20044;-67
2022/03/10 01:37:24;;;;;;;28.73;11.30;;;1.70;80.60;;;;;;5021935;28;20025;-69
2022/03/10 01:39:50;;;;;;;22.20;10.50;;;1.60;81.00;;;;;;5021916;28;20154;-68
2022/03/10 01:42:15;;;;;;;22.25;10.23;;;1.60;81.90;;;;;;5022095;28;20091;-69
2022/03/10 01:44:41;;;;;;;24.52;10.60;;;1.50;82.80;;;;;;5022331;28;20037;-70
2022/03/10 01:47:08;;;;;;;20.30;9.95;;;1.50;83.40;;;;;;5020608;28;20091;-69
2022/03/10 01:49:34;;;;;;;17.98;9.18;;;1.40;83.60;;;;;;5022352;28;20029;-69
2022/03/10 01:52:00;;;;;;;22.08;9.95;;;1.40;84.10;;;;;;5021980;28;20040;-67
2022/03/10 01:54:27;;;;;;;25.65;10.70;;;1.40;84.70;;;;;;5021456;28;20139;-67
2022/03/10 01:56:53;;;;;;;20.58;10.73;;;1.50;84.50;;;;;;5021294;28;20386;-67
2022/03/10 01:59:20;;;;;;;19.25;10.43;;;1.50;84.50;;;;;;5020273;28;20043;-69
2022/03/10 02:01:46;;;;;;;20.67;10.55;;;1.60;84.40;;;;;;5020691;28;20029;-69
2022/03/10 02:04:12;;;;;;;25.10;10.85;;;1.60;84.30;;;;;;5019659;28;20042;-67
2022/03/10 02:06:38;;;;;;;20.35;10.50;;;1.60;84.40;;;;;;5019809;28;20102;-69
2022/03/10 02:12:05;;;;;;;24.95;10.43;;;1.70;84.10;;;;;;5006604;28;20691;-68
2022/03/10 02:17:22;;;;;;;20.75;10.90;;;1.60;83.80;;;;;;5016028;28;20140;-70
2022/03/10 02:19:50;;;;;;;22.38;11.88;;;1.50;83.70;;;;;;5020666;28;20073;-70
2022/03/10 02:22:16;;;;;;;24.13;10.95;;;1.60;83.70;;;;;;5020560;28;20026;-69
2022/03/10 02:24:43;;;;;;;25.67;11.32;;;1.50;83.70;;;;;;5020762;28;20067;-70
2022/03/10 02:27:25;;;;;;;25.75;11.57;;;1.60;84.50;;;;;;5018637;28;20037;-69
2022/03/10 02:29:55;;;;;;;27.08;11.35;;;1.70;83.70;;;;;;5018362;28;20344;-69
2022/03/10 02:32:21;;;;;;;19.85;11.13;;;1.70;83.50;;;;;;5020789;28;20055;-70
2022/03/10 02:34:47;;;;;;;25.70;11.77;;;1.80;83.60;;;;;;5021134;28;20160;-70
2022/03/10 02:37:14;;;;;;;23.27;11.02;;;1.80;83.30;;;;;;5020146;28;20072;-70
2022/03/10 02:39:40;;;;;;;26.17;11.57;;;1.80;82.80;;;;;;5020553;28;20048;-70
2022/03/10 02:42:09;;;;;;;25.60;11.82;;;1.80;82.80;;;;;;5020675;28;20046;-70
2022/03/10 02:44:47;;;;;;;26.55;12.25;;;1.80;82.90;;;;;;5020466;28;20021;-71
2022/03/10 02:47:14;;;;;;;24.52;11.23;;;1.80;82.60;;;;;;5018022;28;20045;-70
2022/03/10 02:49:41;;;;;;;26.13;12.63;;;1.80;83.10;;;;;;5020746;28;20041;-69
2022/03/10 02:52:07;;;;;;;25.25;12.20;;;1.80;83.00;;;;;;5020992;28;20037;-70
2022/03/10 02:54:33;;;;;;;29.55;12.80;;;1.80;82.60;;;;;;5017109;28;20040;-69
2022/03/10 02:56:59;;;;;;;27.45;13.20;;;1.80;83.00;;;;;;5020050;28;20037;-70
2022/03/10 02:59:25;;;;;;;27.10;12.93;;;1.80;83.00;;;;;;5019887;28;20043;-69
2022/03/10 03:01:51;;;;;;;23.67;13.00;;;1.80;83.00;;;;;;5020115;28;20067;-69
2022/03/10 03:04:17;;;;;;;26.25;11.60;;;1.80;83.20;;;;;;5020449;28;20025;-69
2022/03/10 03:06:43;;;;;;;21.85;10.80;;;1.80;83.50;;;;;;5019304;28;20514;-70
2022/03/10 03:09:09;;;;;;;25.77;12.20;;;1.80;83.40;;;;;;5020210;28;20022;-71
2022/03/10 03:11:35;;;;;;;24.75;12.05;;;1.80;83.60;;;;;;5019245;28;20176;-70
2022/03/10 03:14:01;;;;;;;20.15;10.13;;;1.80;83.70;;;;;;5018698;28;20033;-70
2022/03/10 03:16:28;;;;;;;27.20;10.10;;;1.80;83.40;;;;;;5019953;28;20111;-71
2022/03/10 03:18:54;;;;;;;22.83;10.60;;;1.90;83.50;;;;;;5019712;28;20045;-70
2022/03/10 03:21:21;;;;;;;23.52;10.63;;;1.90;83.40;;;;;;5020913;28;20544;-69
2022/03/10 03:23:47;;;;;;;26.05;12.23;;;1.80;83.40;;;;;;5019974;28;20056;-69
2022/03/10 03:26:14;;;;;;;26.25;11.02;;;1.90;83.40;;;;;;5020862;28;20560;-71
2022/03/10 03:28:41;;;;;;;23.75;10.95;;;1.90;83.10;;;;;;5020066;28;20047;-70
2022/03/10 03:31:07;;;;;;;26.15;11.75;;;1.90;83.20;;;;;;5021090;28;20084;-71
2022/03/10 03:33:33;;;;;;;25.60;11.48;;;1.80;83.30;;;;;;5021598;28;20030;-71
2022/03/10 03:35:59;;;;;;;26.23;11.15;;;1.80;83.20;;;;;;5020251;28;20029;-70
2022/03/10 03:38:24;;;;;;;26.38;11.88;;;1.80;83.40;;;;;;5020446;28;20489;-70
2022/03/10 03:40:50;;;;;;;26.92;11.30;;;1.80;83.70;;;;;;5020749;28;20045;-69
2022/03/10 03:43:16;;;;;;;23.92;10.70;;;1.70;84.00;;;;;;5021038;28;20033;-69
2022/03/10 03:45:42;;;;;;;24.17;11.90;;;1.70;83.90;;;;;;5020579;28;20594;-70
2022/03/10 03:48:08;;;;;;;23.33;11.40;;;1.70;83.80;;;;;;5020789;28;20041;-70
2022/03/10 03:50:33;;;;;;;23.60;11.70;;;1.70;83.90;;;;;;5021077;28;20116;-70
2022/03/10 03:52:59;;;;;;;25.42;11.73;;;1.70;84.20;;;;;;5020810;28;20041;-69
2022/03/10 03:55:25;;;;;;;24.33;10.98;;;1.70;84.60;;;;;;5019018;28;20029;-69
2022/03/10 03:57:50;;;;;;;25.80;11.13;;;1.70;84.60;;;;;;5020016;28;20084;-69
2022/03/10 04:00:16;;;;;;;30.50;11.82;;;1.60;84.50;;;;;;5020890;28;20041;-69
2022/03/10 04:02:43;;;;;;;25.85;11.68;;;1.60;84.80;;;;;;5020508;28;20037;-69
2022/03/10 04:05:09;;;;;;;29.98;10.82;;;1.60;84.90;;;;;;5020733;28;20037;-69
2022/03/10 04:07:35;;;;;;;27.02;12.07;;;1.60;85.00;;;;;;5020458;28;20044;-69
2022/03/10 04:10:02;;;;;;;30.05;12.15;;;1.60;84.90;;;;;;5021065;28;20052;-71
2022/03/10 04:12:28;;;;;;;24.98;11.05;;;1.60;84.80;;;;;;5017634;28;20049;-69
2022/03/10 04:14:54;;;;;;;28.20;12.82;;;1.50;85.00;;;;;;5020459;28;20041;-69
2022/03/10 04:17:19;;;;;;;24.05;10.88;;;1.50;85.40;;;;;;5020677;28;20033;-69
2022/03/10 04:19:45;;;;;;;21.50;11.10;;;1.50;85.40;;;;;;5020547;28;20033;-70
2022/03/10 04:22:11;;;;;;;24.65;12.07;;;1.50;85.50;;;;;;5021300;28;20509;-70
2022/03/10 04:24:36;;;;;;;28.05;11.82;;;1.50;85.70;;;;;;5024488;28;20029;-69
2022/03/10 04:27:02;;;;;;;25.40;11.95;;;1.50;86.00;;;;;;5023411;28;20109;-70
2022/03/10 04:29:28;;;;;;;28.27;12.27;;;1.50;85.80;;;;;;5024790;28;20117;-70
2022/03/10 04:31:54;;;;;;;23.10;11.20;;;1.50;85.70;;;;;;5024369;28;20049;-70
2022/03/10 04:34:19;;;;;;;25.48;11.73;;;1.60;85.80;;;;;;5022744;28;20037;-69
2022/03/10 04:36:45;;;;;;;24.92;11.60;;;1.60;85.60;;;;;;5023347;28;20025;-69
2022/03/10 04:39:11;;;;;;;26.05;11.23;;;1.60;85.40;;;;;;5023310;28;20037;-70
2022/03/10 04:41:37;;;;;;;27.13;12.63;;;1.60;85.60;;;;;;5023815;28;20536;-69
2022/03/10 04:44:03;;;;;;;30.58;12.35;;;1.60;85.90;;;;;;5023442;28;20035;-70
2022/03/10 04:46:29;;;;;;;28.92;12.85;;;1.60;85.40;;;;;;5023384;28;20060;-70
2022/03/10 04:48:55;;;;;;;27.17;12.32;;;1.60;85.50;;;;;;5022961;28;20060;-70
2022/03/10 04:51:21;;;;;;;25.67;11.55;;;1.60;85.50;;;;;;5023076;28;20088;-70
2022/03/10 04:53:47;;;;;;;29.05;12.65;;;1.50;85.70;;;;;;5023080;28;20636;-69
2022/03/10 04:56:13;;;;;;;26.98;12.80;;;1.50;85.80;;;;;;5023462;28;20049;-70
2022/03/10 04:58:39;;;;;;;33.05;13.38;;;1.50;85.80;;;;;;5023374;28;20033;-69
2022/03/10 05:01:05;;;;;;;27.67;12.88;;;1.50;85.70;;;;;;5023358;28;20115;-69
2022/03/10 05:03:34;;;;;;;31.58;13.52;;;1.50;85.90;;;;;;5022843;28;20543;-69
2022/03/10 05:06:00;;;;;;;25.98;11.98;;;1.50;85.90;;;;;;5021277;28;20745;-69
2022/03/10 05:08:26;;;;;;;28.05;12.43;;;1.40;85.90;;;;;;5022139;28;20769;-70
2022/03/10 05:10:52;;;;;;;28.95;12.07;;;1.40;86.00;;;;;;5024419;28;20065;-70
2022/03/10 05:13:18;;;;;;;27.85;12.43;;;1.40;86.10;;;;;;5023517;28;20033;-70
2022/03/10 05:15:43;;;;;;;31.98;12.40;;;1.40;86.10;;;;;;5024624;28;20042;-70
2022/03/10 05:18:09;;;;;;;26.45;11.85;;;1.40;86.00;;;;;;5022798;28;20041;-70
2022/03/10 05:20:35;;;;;;;27.23;12.02;;;1.30;86.00;;;;;;5022747;28;20040;-70
2022/03/10 05:23:03;;;;;;;26.70;12.48;;;1.40;86.10;;;;;;5022591;28;20818;-69
2022/03/10 05:25:37;;;;;;;31.35;13.45;;;1.40;86.00;;;;;;5022650;28;20067;-69
2022/03/10 05:28:04;;;;;;;32.22;12.77;;;1.40;86.00;;;;;;5021363;28;20128;-70
2022/03/10 05:30:30;;;;;;;30.48;12.93;;;1.40;86.00;;;;;;5023264;28;20033;-70
2022/03/10 05:32:56;;;;;;;32.55;13.07;;;1.30;86.40;;;;;;5022318;28;20844;-69
2022/03/10 05:35:22;;;;;;;34.80;13.57;;;1.30;86.40;;;;;;5021620;28;20048;-70
2022/03/10 05:37:48;;;;;;;30.10;13.70;;;1.20;86.60;;;;;;5022238;28;20037;-70
2022/03/10 05:40:17;;;;;;;29.73;11.23;;;1.20;87.00;;;;;;5022033;28;20370;-70
2022/03/10 05:42:44;;;;;;;27.42;12.40;;;1.30;86.90;;;;;;5022316;28;20037;-70
2022/03/10 05:45:11;;;;;;;29.33;13.18;;;1.30;87.20;;;;;;5021784;28;20057;-69
2022/03/10 05:47:38;;;;;;;26.35;12.00;;;1.40;86.40;;;;;;5022134;28;20258;-70
2022/03/10 05:50:05;;;;;;;26.45;12.23;;;1.40;86.10;;;;;;5021715;28;20367;-70
2022/03/10 05:52:31;;;;;;;29.77;12.88;;;1.50;85.90;;;;;;5021845;28;20123;-70
2022/03/10 05:54:57;;;;;;;30.55;12.73;;;1.50;85.80;;;;;;5021646;28;20108;-70
2022/03/10 05:57:23;;;;;;;26.70;12.60;;;1.50;85.50;;;;;;5021201;28;20595;-69
2022/03/10 05:59:49;;;;;;;28.55;12.00;;;1.60;85.40;;;;;;5024013;28;20033;-69
2022/03/10 06:02:18;;;;;;;31.77;13.38;;;1.60;85.40;;;;;;5021680;28;20116;-70
2022/03/10 06:04:45;;;;;;;26.48;12.27;;;1.60;85.20;;;;;;5021058;28;20893;-69
2022/03/10 06:07:11;;;;;;;29.42;13.02;;;1.70;85.10;;;;;;5017989;28;20079;-69
2022/03/10 06:09:37;;;;;;;35.50;14.30;;;1.70;84.60;;;;;;5020260;28;20116;-69
2022/03/10 06:12:03;;;;;;;29.15;12.80;;;1.70;84.80;;;;;;5022827;28;20063;-69
2022/03/10 06:14:28;;;;;;;29.45;13.35;;;1.80;85.00;;;;;;5021227;28;20648;-70
2022/03/10 06:16:54;;;;;;;38.60;12.80;;;1.80;84.50;;;;;;5020051;28;20048;-69
2022/03/10 06:19:20;;;;;;;30.40;13.52;;;1.90;84.40;;;;;;5021277;28;20072;-69
2022/03/10 06:21:47;;;;;;;24.25;11.15;;;2.00;84.10;;;;;;5021364;28;20093;-70
2022/03/10 06:24:12;;;;;;;28.83;13.50;;;2.10;83.60;;;;;;5020002;28;20653;-68
2022/03/10 06:26:39;;;;;;;30.80;13.48;;;2.20;83.50;;;;;;5006150;28;20037;-69
2022/03/10 06:29:05;;;;;;;30.92;12.70;;;2.30;83.40;;;;;;5020110;28;20029;-70
2022/03/10 06:31:31;;;;;;;32.17;13.18;;;2.30;82.90;;;;;;5021413;28;20064;-71
2022/03/10 06:33:58;;;;;;;32.83;13.82;;;2.50;82.30;;;;;;5020864;28;20029;-72
2022/03/10 06:36:24;;;;;;;34.47;14.10;;;2.50;81.90;;;;;;5020527;28;20512;-71
2022/03/10 06:38:50;;;;;;;31.83;13.68;;;2.60;81.90;;;;;;5020852;28;20029;-68
2022/03/10 06:41:16;;;;;;;28.35;12.63;;;2.60;81.50;;;;;;5019806;28;20048;-67
2022/03/10 06:43:41;;;;;;;29.83;13.77;;;2.70;80.80;;;;;;5021134;28;20036;-67
2022/03/10 06:46:07;;;;;;;32.40;12.90;;;2.80;80.50;;;;;;5019279;28;20029;-68
2022/03/10 06:48:34;;;;;;;27.95;12.68;;;2.90;80.10;;;;;;5020566;28;20655;-68
2022/03/10 06:51:00;;;;;;;30.95;13.73;;;3.00;79.50;;;;;;5022268;28;20037;-67
2022/03/10 06:53:26;;;;;;;28.92;12.57;;;3.00;79.40;;;;;;5022838;28;20501;-68
2022/03/10 06:55:52;;;;;;;33.78;13.77;;;3.10;79.30;;;;;;5024336;28;20068;-67
2022/03/10 06:58:18;;;;;;;35.42;13.15;;;3.10;79.10;;;;;;5019211;28;20091;-67
2022/03/10 07:00:44;;;;;;;31.73;13.13;;;3.20;78.60;;;;;;5023151;28;20041;-68
2022/03/10 07:03:10;;;;;;;32.97;13.65;;;3.30;78.60;;;;;;5018912;28;20037;-72
2022/03/10 07:05:36;;;;;;;32.85;13.00;;;3.40;78.40;;;;;;5020937;28;20034;-68
2022/03/10 07:08:02;;;;;;;30.38;13.65;;;3.50;78.20;;;;;;5022159;28;20119;-67
2022/03/10 07:10:28;;;;;;;37.67;13.63;;;3.50;77.50;;;;;;5021802;28;20129;-69
2022/03/10 07:12:56;;;;;;;38.30;13.05;;;3.70;77.20;;;;;;5022219;28;20140;-68
2022/03/10 07:15:22;;;;;;;30.73;13.05;;;3.80;76.70;;;;;;5019843;28;20448;-68
2022/03/10 07:17:48;;;;;;;31.88;14.02;;;3.90;76.30;;;;;;5018274;28;20045;-68
2022/03/10 07:20:14;;;;;;;30.45;13.80;;;3.90;75.90;;;;;;5020297;28;20029;-67
2022/03/10 07:22:40;;;;;;;37.72;13.55;;;4.00;75.70;;;;;;5020439;28;20513;-68
2022/03/10 07:25:09;;;;;;;33.83;13.35;;;4.10;75.40;;;;;;5019645;28;20114;-68
2022/03/10 07:27:35;;;;;;;29.15;14.00;;;4.20;74.80;;;;;;5019686;28;20057;-68
2022/03/10 07:30:01;;;;;;;29.10;13.52;;;4.40;74.40;;;;;;5020390;28;20048;-67
2022/03/10 07:32:27;;;;;;;32.65;13.60;;;4.50;74.20;;;;;;5020461;28;20442;-68
2022/03/10 07:34:53;;;;;;;31.67;12.68;;;4.70;73.40;;;;;;5020528;28;20045;-67
2022/03/10 07:37:19;;;;;;;33.28;13.55;;;5.80;70.70;;;;;;5019414;28;20033;-67
2022/03/10 07:39:45;;;;;;;28.60;13.10;;;9.50;58.30;;;;;;5019651;28;20114;-67
2022/03/10 07:42:10;;;;;;;29.27;13.63;;;12.70;48.40;;;;;;5020425;28;20466;-68
2022/03/10 07:44:36;;;;;;;30.05;13.45;;;13.90;43.70;;;;;;5020255;28;20037;-68
2022/03/10 07:47:02;;;;;;;30.35;13.50;;;14.20;42.70;;;;;;5019174;28;20030;-67
2022/03/10 07:49:29;;;;;;;29.60;13.23;;;15.10;40.90;;;;;;5021011;28;20553;-68
2022/03/10 07:51:55;;;;;;;29.65;13.77;;;16.80;38.20;;;;;;5020187;28;20159;-71
2022/03/10 07:54:22;;;;;;;27.67;13.98;;;17.90;35.60;;;;;;5020043;28;20056;-67
2022/03/10 07:56:48;;;;;;;33.75;14.65;;;18.50;33.60;;;;;;5018843;28;20489;-67
2022/03/10 07:59:14;;;;;;;29.58;14.35;;;18.60;34.00;;;;;;5024667;28;20508;-68
2022/03/10 08:01:40;;;;;;;27.10;14.63;;;18.30;34.50;;;;;;5024512;28;20044;-67
2022/03/10 08:04:05;;;;;;;31.65;14.70;;;18.10;34.40;;;;;;5024190;28;20043;-67
2022/03/10 08:06:32;;;;;;;28.23;14.18;;;17.20;35.10;;;;;;5023417;28;20029;-69
2022/03/10 08:08:58;;;;;;;28.73;15.02;;;16.40;36.10;;;;;;5023060;28;20490;-67
2022/03/10 08:11:24;;;;;;;25.95;14.38;;;16.30;37.10;;;;;;5023699;28;20033;-67
2022/03/10 08:13:50;;;;;;;26.33;14.23;;;16.70;36.30;;;;;;5021550;28;20037;-67
2022/03/10 08:16:16;;;;;;;28.98;14.50;;;15.90;37.10;;;;;;5022739;28;20036;-68
2022/03/10 08:18:43;;;;;;;34.08;15.52;;;15.10;38.90;;;;;;5022158;28;20390;-66
2022/03/10 08:21:11;;;;;;;30.45;15.38;;;14.50;40.20;;;;;;5020676;28;20037;-67
2022/03/10 08:23:36;;;;;;;28.83;14.80;;;14.00;41.10;;;;;;5023038;28;20746;-66
2022/03/10 08:26:02;;;;;;;29.10;14.65;;;13.00;43.20;;;;;;5021423;28;20033;-67
2022/03/10 08:28:28;;;;;;;31.23;15.07;;;13.00;44.60;;;;;;5023979;28;20996;-67
2022/03/10 08:30:54;;;;;;;27.02;15.15;;;13.90;41.90;;;;;;5021884;28;20383;-67
2022/03/10 08:33:20;;;;;;;31.95;15.00;;;14.20;42.00;;;;;;5022171;28;20048;-67
2022/03/10 08:35:45;;;;;;;32.67;15.23;;;15.50;38.70;;;;;;5021685;28;20041;-67
2022/03/10 08:38:11;;;;;;;29.38;14.10;;;15.10;38.90;;;;;;5021975;28;20039;-67
2022/03/10 08:40:37;;;;;;;33.72;15.40;;;13.80;41.80;;;;;;5020300;28;20156;-67
2022/03/10 08:43:03;;;;;;;35.15;15.80;;;12.90;44.30;;;;;;5021723;28;20059;-67
2022/03/10 08:45:30;;;;;;;39.03;15.93;;;12.10;45.70;;;;;;5022082;28;20064;-67
2022/03/10 08:47:56;;;;;;;35.05;15.20;;;12.60;46.20;;;;;;5021779;28;20034;-70
2022/03/10 08:50:23;;;;;;;32.42;16.15;;;13.30;43.80;;;;;;5020654;28;20045;-67
2022/03/10 08:52:49;;;;;;;31.88;15.90;;;14.60;41.90;;;;;;5024502;28;20030;-67
2022/03/10 08:55:15;;;;;;;32.83;15.77;;;15.60;39.70;;;;;;5021117;28;20044;-67
2022/03/10 08:57:41;;;;;;;28.15;14.18;;;15.80;39.80;;;;;;5021860;28;20036;-67
2022/03/10 09:00:09;;;;;;;31.85;15.70;;;14.40;41.40;;;;;;5021981;28;20076;-67
2022/03/10 09:02:35;;;;;;;29.98;15.10;;;12.90;44.50;;;;;;5018332;28;20036;-66
2022/03/10 09:05:01;;;;;;;37.20;15.45;;;12.10;47.10;;;;;;5021668;28;20410;-66
2022/03/10 09:07:26;;;;;;;30.17;15.73;;;12.80;45.60;;;;;;5021385;28;20032;-66
2022/03/10 09:09:52;;;;;;;35.80;15.65;;;15.90;40.60;;;;;;5021742;28;20682;-67
2022/03/10 09:12:18;;;;;;;32.83;16.90;;;18.20;35.90;;;;;;5021435;28;20037;-65
2022/03/10 09:14:43;;;;;;;30.92;15.32;;;19.90;33.30;;;;;;4983232;28;1104494;-60
2022/03/10 09:17:10;;;;;;;32.65;17.15;;;20.40;32.40;;;;;;5021594;28;20037;-60
2022/03/10 09:19:36;;;;;;;33.03;17.38;;;20.00;33.00;;;;;;5022479;28;20041;-60
2022/03/10 09:22:02;;;;;;;28.55;15.48;;;21.00;32.00;;;;;;5022245;28;20040;-61
2022/03/10 09:24:30;;;;;;;26.73;14.45;;;23.20;29.60;;;;;;5022111;28;20826;-62
2022/03/10 09:26:56;;;;;;;28.88;15.52;;;25.40;27.60;;;;;;5020947;28;20034;-62
2022/03/10 09:29:22;;;;;;;27.38;14.43;;;26.50;26.30;;;;;;5018869;28;20030;-62
2022/03/10 09:31:47;;;;;;;45.40;22.50;;;25.30;26.80;;;;;;5021662;28;20482;-61
2022/03/10 09:34:13;;;;;;;26.48;14.38;;;25.40;27.20;;;;;;5025776;28;20366;-62
2022/03/10 09:36:39;;;;;;;23.85;13.57;;;23.70;28.20;;;;;;5021503;28;20763;-62
2022/03/10 09:39:09;;;;;;;29.45;14.32;;;20.00;32.60;;;;;;5021861;28;20096;-61
2022/03/10 09:41:37;;;;;;;31.20;14.68;;;16.70;38.10;;;;;;5022270;28;20977;-63
2022/03/10 09:44:14;;;;;;;27.95;13.18;;;14.90;42.50;;;;;;5020230;28;21710;-61
2022/03/10 09:46:41;;;;;;;25.13;13.90;;;14.90;43.00;;;;;;5015726;28;20493;-61
2022/03/10 09:49:07;;;;;;;29.10;15.20;;;14.80;43.20;;;;;;5017731;28;20863;-61
2022/03/10 09:51:33;;;;;;;25.02;14.15;;;14.10;45.10;;;;;;5020697;28;20037;-70
2022/03/10 09:53:59;;;;;;;31.15;13.52;;;13.70;46.10;;;;;;5021589;28;20547;-64
2022/03/10 09:56:26;;;;;;;26.55;14.18;;;16.80;40.60;;;;;;5018265;28;20041;-64
2022/03/10 09:58:52;;;;;;;29.30;13.55;;;21.20;33.50;;;;;;5016492;28;20457;-64
2022/03/10 10:01:17;;;;;;;28.40;13.43;;;24.00;29.00;;;;;;5011772;28;20094;-63
2022/03/10 10:03:43;;;;;;;29.83;14.02;;;23.80;28.90;;;;;;5008894;28;20030;-62
2022/03/10 10:06:09;;;;;;;25.27;12.77;;;23.40;29.20;;;;;;5015022;28;20033;-61
2022/03/10 10:08:35;;;;;;;26.55;13.70;;;24.20;28.50;;;;;;5014566;28;20076;-61
2022/03/10 10:11:02;;;;;;;22.90;12.85;;;24.80;27.70;;;;;;5022186;28;20045;-64
2022/03/10 10:13:35;;;;;;;22.55;13.43;;;25.00;27.80;;;;;;5021342;28;20053;-62
2022/03/10 10:16:13;;;;;;;23.90;13.20;;;26.00;27.10;;;;;;5019037;28;20072;-62
2022/03/10 10:18:40;;;;;;;25.63;14.85;;;27.50;25.70;;;;;;5015857;28;20037;-66
2022/03/10 10:21:08;;;;;;;24.02;12.52;;;26.60;26.10;;;;;;5022076;28;20052;-66
2022/03/10 10:23:39;;;;;;;21.60;12.77;;;25.30;27.20;;;;;;5021909;28;20065;-65
2022/03/10 10:26:07;;;;;;;24.55;13.68;;;25.20;27.40;;;;;;5018617;28;20030;-63
2022/03/10 10:28:35;;;;;;;25.98;12.85;;;25.80;26.90;;;;;;5013045;28;20083;-65
2022/03/10 10:31:10;;;;;;;23.63;13.82;;;25.60;27.20;;;;;;5018294;28;20099;-62
2022/03/10 10:33:38;;;;;;;18.93;10.93;;;26.60;25.90;;;;;;5017004;28;20225;-62
2022/03/10 10:36:19;;;;;;;19.27;11.50;;;27.50;25.10;;;;;;5012852;28;20079;-62
2022/03/10 10:38:49;;;;;;;24.88;13.30;;;29.00;24.80;;;;;;5015379;28;20037;-62
2022/03/10 10:41:28;;;;;;;25.67;13.75;;;30.20;24.30;;;;;;5020400;28;20048;-62
2022/03/10 10:43:58;;;;;;;24.80;12.38;;;30.10;23.80;;;;;;5017040;28;20115;-64
2022/03/10 10:46:44;;;;;;;28.73;13.45;;;28.40;24.60;;;;;;5018919;28;20037;-62
2022/03/10 10:49:16;;;;;;;;;;;26.70;26.20;;;;;;5015880;28;20033;-64
2022/03/10 10:51:47;;;;;;;22.88;12.40;;;27.00;26.20;;;;;;5011358;28;19917;-64
2022/03/10 10:54:20;;;;;;;20.88;11.93;;;27.10;25.70;;;;;;5013880;28;20044;-66
2022/03/10 10:56:47;;;;;;;20.23;10.98;;;28.10;25.20;;;;;;5009659;28;20139;-64
2022/03/10 10:59:30;;;;;;;19.42;10.25;;;29.10;24.30;;;;;;5013421;28;20274;-63
2022/03/10 11:02:19;;;;;;;15.10;9.13;;;28.60;24.20;;;;;;5015640;28;20029;-64
2022/03/10 11:04:53;;;;;;;17.42;9.93;;;27.70;24.70;;;;;;5013904;28;20116;-64
2022/03/10 11:07:21;;;;;;;16.83;10.40;;;26.80;25.20;;;;;;5013613;28;20068;-63
2022/03/10 11:09:48;;;;;;;16.83;9.02;;;26.90;25.60;;;;;;5015992;28;20107;-64
2022/03/10 11:12:16;;;;;;;15.30;8.95;;;26.60;26.00;;;;;;5018122;28;20266;-63
2022/03/10 11:14:43;;;;;;;19.98;10.40;;;25.80;25.70;;;;;;5019177;28;20041;-64
2022/03/10 11:17:11;;;;;;;15.65;8.57;;;23.90;27.70;;;;;;5017839;28;20516;-63
2022/03/10 11:19:44;;;;;;;23.15;12.50;;;22.60;29.50;;;;;;5020148;28;20533;-63
2022/03/10 11:22:35;;;;;;;19.77;9.43;;;23.00;29.60;;;;;;5019156;28;20071;-65
2022/03/10 11:25:33;;;;;;;15.40;9.25;;;20.60;32.40;;;;;;5019005;28;20049;-64
2022/03/10 11:28:22;;;;;;;17.83;9.07;;;16.70;39.00;;;;;;5009040;28;20634;-62
2022/03/10 11:30:50;;;;;;;21.00;9.50;;;14.70;42.80;;;;;;5009817;28;20037;-61
2022/03/10 11:33:17;;;;;;;19.55;9.35;;;13.60;45.10;;;;;;5019429;28;20402;-69
2022/03/10 11:35:47;;;;;;;17.27;8.57;;;13.20;46.50;;;;;;5011202;28;20038;-65
2022/03/10 11:38:15;;;;;;;16.50;8.73;;;12.90;47.40;;;;;;5015085;28;20044;-63
2022/03/10 11:40:53;;;;;;;20.63;10.48;;;12.50;48.60;;;;;;5018713;28;20037;-62
2022/03/10 11:43:32;;;;;;;18.27;9.90;;;12.10;49.50;;;;;;5013033;28;20034;-62
2022/03/10 11:46:18;;;;;;;20.38;11.07;;;12.60;49.90;;;;;;5016751;28;20036;-62
2022/03/10 11:48:59;;;;;;;25.20;12.63;;;12.70;50.00;;;;;;5019396;28;20430;-63
2022/03/10 11:51:43;;;;;;;19.80;11.88;;;12.60;49.50;;;;;;5013898;28;20034;-63
2022/03/10 11:54:11;;;;;;;24.55;12.25;;;12.30;49.90;;;;;;5019606;28;20489;-62
2022/03/10 11:56:43;;;;;;;21.98;11.13;;;11.90;50.90;;;;;;5015059;28;20025;-64
2022/03/10 11:59:33;;;;;;;21.92;11.35;;;11.70;51.80;;;;;;5022417;28;20068;-65
2022/03/10 12:02:00;;;;;;;21.75;12.60;;;11.90;52.40;;;;;;5023440;28;20025;-65
2022/03/10 12:04:40;;;;;;;21.17;11.88;;;12.70;50.50;;;;;;5024684;28;20103;-63
2022/03/10 12:07:09;;;;;;;19.13;11.32;;;13.50;48.40;;;;;;5021970;28;20036;-63
2022/03/10 12:09:38;;;;;;;22.67;12.13;;;13.90;46.20;;;;;;5024947;28;20245;-63
2022/03/10 12:12:25;;;;;;;21.90;12.75;;;14.00;46.90;;;;;;5023496;28;20033;-65
2022/03/10 12:14:55;;;;;;;23.88;11.88;;;13.70;47.30;;;;;;5021153;28;20056;-61
2022/03/10 12:17:46;;;;;;;21.15;11.70;;;13.90;46.60;;;;;;5019912;28;20053;-70
2022/03/10 12:20:21;;;;;;;19.42;11.75;;;13.80;46.20;;;;;;5016052;28;20041;-71
2022/03/10 12:22:58;;;;;;;19.45;10.02;;;13.90;47.00;;;;;;5019042;28;20405;-71
2022/03/10 12:25:24;;;;;;;16.05;10.27;;;14.00;46.10;;;;;;5017333;28;20041;-69
2022/03/10 12:27:54;;;;;;;18.63;11.43;;;13.60;46.30;;;;;;5018411;28;20084;-69
2022/03/10 12:30:26;;;;;;;19.10;11.45;;;13.20;47.10;;;;;;5016824;28;20033;-68
2022/03/10 12:32:54;;;;;;;17.88;10.73;;;12.90;47.70;;;;;;5022959;28;20413;-69
2022/03/10 12:35:20;;;;;;;19.88;10.38;;;12.50;48.00;;;;;;5021296;28;20159;-68
2022/03/10 12:37:49;;;;;;;18.13;10.93;;;12.20;49.50;;;;;;5021351;28;20026;-69
2022/03/10 12:40:25;;;;;;;18.92;11.13;;;12.00;49.70;;;;;;5023008;28;20069;-70
2022/03/10 12:42:52;;;;;;;16.75;10.43;;;11.90;50.40;;;;;;5028173;28;20033;-69